Time;durP1;ratioP1;P1;durP2;ratioP2;P2;SDS_P1;SDS_P2;PMS_P1;PMS_P2;Temp;Humidity;BMP_temperature;BMP_pressure;BME280_temperature;BME280_humidity;BME280_pressure;Samples;Min_cycle;Max_cycle;Signal;HPM_P1;HPM_P2
2022/05/30 00:01:22;;;;;;;1999.90;999.90;;;;;;;5.54;100.00;93792.59;5098202;28;20196;-66
2022/05/30 00:03:48;;;;;;;1999.90;999.90;;;;;;;5.48;100.00;93783.38;5098083;28;20196;-66
2022/05/30 00:06:18;;;;;;;1999.90;999.90;;;;;;;5.41;100.00;93789.69;5098058;28;20304;-61
2022/05/30 00:08:43;;;;;;;1999.90;999.90;;;;;;;5.38;100.00;93787.00;5098102;28;20193;-59
2022/05/30 00:11:12;;;;;;;1999.90;999.90;;;;;;;5.41;100.00;93780.78;5098552;28;20186;-59
2022/05/30 00:13:38;;;;;;;1999.90;999.90;;;;;;;5.44;100.00;93775.34;5098022;28;20195;-59
2022/05/30 00:16:06;;;;;;;1999.90;999.90;;;;;;;5.41;100.00;93772.66;5097958;28;20185;-59
2022/05/30 00:18:31;;;;;;;1999.90;999.90;;;;;;;5.37;100.00;93761.13;5097936;28;20217;-60
2022/05/30 00:20:57;;;;;;;1999.90;999.90;;;;;;;5.32;100.00;93753.50;5098067;28;20225;-60
2022/05/30 00:23:22;;;;;;;1999.90;999.90;;;;;;;5.22;100.00;93755.19;5098084;28;20221;-62
2022/05/30 00:25:47;;;;;;;1999.90;999.90;;;;;;;5.19;100.00;93763.34;5097965;28;20233;-59
2022/05/30 00:28:16;;;;;;;1999.90;999.90;;;;;;;5.14;100.00;93763.81;5097965;28;20212;-59
2022/05/30 00:30:41;;;;;;;1999.90;999.90;;;;;;;5.11;100.00;93759.97;5097625;28;20184;-59
2022/05/30 00:33:07;;;;;;;1999.90;999.90;;;;;;;5.14;100.00;93752.97;5097925;28;20198;-59
2022/05/30 00:35:32;;;;;;;1999.90;999.90;;;;;;;5.15;100.00;93709.28;5097378;28;20194;-59
2022/05/30 00:37:57;;;;;;;1999.90;999.90;;;;;;;5.12;100.00;93707.41;5098078;28;20224;-59
2022/05/30 00:40:23;;;;;;;1999.90;999.90;;;;;;;5.11;100.00;93708.59;5097844;28;20197;-59
2022/05/30 00:42:48;;;;;;;1999.90;999.90;;;;;;;5.07;100.00;93709.81;5098243;28;20276;-61
2022/05/30 00:45:14;;;;;;;1999.90;999.90;;;;;;;4.98;100.00;93714.94;5097432;28;20208;-60
2022/05/30 00:47:39;;;;;;;1999.90;999.90;;;;;;;4.94;100.00;93714.25;5097725;28;20191;-59
2022/05/30 00:50:06;;;;;;;1999.90;999.90;;;;;;;4.88;100.00;93719.34;5097604;28;20192;-59
2022/05/30 00:52:36;;;;;;;1999.90;999.90;;;;;;;4.87;100.00;93717.03;5097535;28;20196;-59
2022/05/30 00:55:12;;;;;;;1999.90;999.90;;;;;;;4.83;100.00;93710.91;5097459;28;20190;-59
2022/05/30 00:57:39;;;;;;;1999.90;999.90;;;;;;;4.77;100.00;93717.97;5096794;28;20180;-59
2022/05/30 01:00:16;;;;;;;1999.90;999.90;;;;;;;4.69;100.00;93724.63;5097513;28;20190;-60
2022/05/30 01:02:42;;;;;;;1999.90;999.90;;;;;;;4.63;100.00;93724.31;5098064;28;20192;-58
2022/05/30 01:07:58;;;;;;;1999.90;999.90;;;;;;;4.63;100.00;93713.50;5115861;28;20251;-68
2022/05/30 01:10:24;;;;;;;1999.90;999.90;;;;;;;4.63;100.00;93710.06;5097316;28;20180;-65
2022/05/30 01:12:52;;;;;;;1999.90;999.90;;;;;;;4.67;100.00;93713.47;5097301;28;20223;-67
2022/05/30 01:15:29;;;;;;;1999.90;999.90;;;;;;;4.67;100.00;93708.84;5097206;28;20195;-65
2022/05/30 01:18:08;;;;;;;1999.90;999.90;;;;;;;4.67;100.00;93702.66;5096999;28;20292;-66
2022/05/30 01:20:42;;;;;;;1999.90;999.90;;;;;;;4.69;100.00;93700.28;5097084;28;20244;-59
2022/05/30 01:23:20;;;;;;;1999.90;999.90;;;;;;;4.72;100.00;93711.06;5097176;28;20200;-62
2022/05/30 01:26:07;;;;;;;1999.90;999.90;;;;;;;4.70;100.00;93691.03;5097500;28;20215;-62
2022/05/30 01:28:47;;;;;;;1999.90;999.90;;;;;;;4.65;100.00;93694.19;5097007;28;20307;-63
2022/05/30 01:31:14;;;;;;;1999.90;999.90;;;;;;;4.57;100.00;93701.63;5097412;28;20186;-63
2022/05/30 01:33:39;;;;;;;1999.90;999.90;;;;;;;4.56;100.00;93702.03;5096670;28;20180;-62
2022/05/30 01:36:05;;;;;;;1999.90;999.90;;;;;;;4.58;100.00;93702.38;5096851;28;20358;-63
2022/05/30 01:38:30;;;;;;;1999.90;999.90;;;;;;;4.55;100.00;93678.88;5096833;28;20248;-70
2022/05/30 01:40:56;;;;;;;1999.90;999.90;;;;;;;4.47;100.00;93601.78;5097594;28;20214;-59
2022/05/30 01:43:22;;;;;;;1999.90;999.90;;;;;;;4.43;100.00;93228.22;5097224;28;20185;-58
2022/05/30 01:45:47;;;;;;;1999.90;999.90;;;;;;;4.43;100.00;93206.59;5097126;28;20270;-59
2022/05/30 01:48:13;;;;;;;1999.90;999.90;;;;;;;4.41;100.00;93190.06;5096691;28;20188;-59
2022/05/30 01:50:38;;;;;;;1999.90;999.90;;;;;;;4.36;100.00;93194.00;5096595;28;20245;-59
2022/05/30 01:53:03;;;;;;;1999.90;999.90;;;;;;;4.34;100.00;93218.00;5097072;28;20185;-58
2022/05/30 01:55:29;;;;;;;1999.90;999.90;;;;;;;4.36;100.00;93312.09;5096618;28;20179;-59
2022/05/30 01:57:54;;;;;;;1999.90;999.90;;;;;;;4.37;100.00;93654.03;5096695;28;20267;-60
2022/05/30 02:00:19;;;;;;;1999.90;999.90;;;;;;;4.38;100.00;93663.66;5096449;28;20268;-60
2022/05/30 02:02:45;;;;;;;1999.90;999.90;;;;;;;4.37;100.00;93646.69;5096222;28;20250;-60
2022/05/30 02:05:11;;;;;;;1999.90;999.90;;;;;;;4.36;100.00;93639.75;5096436;28;20245;-60
2022/05/30 02:07:36;;;;;;;1999.90;999.90;;;;;;;4.35;100.00;93629.34;5096404;28;20180;-60
2022/05/30 02:10:03;;;;;;;1999.90;999.90;;;;;;;4.34;100.00;93622.44;5095899;28;20191;-60
2022/05/30 02:12:28;;;;;;;1999.90;999.90;;;;;;;4.33;100.00;93612.81;5096308;28;20271;-59
2022/05/30 02:14:54;;;;;;;1999.90;999.90;;;;;;;4.36;100.00;93601.16;5096489;28;20268;-66
2022/05/30 02:17:19;;;;;;;1999.90;999.90;;;;;;;4.34;100.00;93587.31;5096590;28;20209;-59
2022/05/30 02:19:45;;;;;;;1999.90;999.90;;;;;;;4.34;100.00;93592.72;5096314;28;20204;-59
2022/05/30 02:22:15;;;;;;;1999.90;999.90;;;;;;;4.36;100.00;93596.53;5096211;28;20251;-61
2022/05/30 02:24:40;;;;;;;1999.90;999.90;;;;;;;4.39;100.00;93601.13;5096069;28;20192;-60
2022/05/30 02:27:08;;;;;;;1999.90;999.90;;;;;;;4.43;100.00;93601.06;5096137;28;20214;-59
2022/05/30 02:29:33;;;;;;;1999.90;999.90;;;;;;;4.46;100.00;93611.84;5096070;28;20210;-59
2022/05/30 02:31:59;;;;;;;1999.90;999.90;;;;;;;4.44;100.00;93610.72;5096001;28;20183;-70
2022/05/30 02:37:09;;;;;;;1999.90;999.90;;;;;;;4.47;100.00;93623.38;5114572;28;20215;-62
2022/05/30 02:39:34;;;;;;;1999.90;999.90;;;;;;;4.48;100.00;93622.97;5096372;28;20216;-62
2022/05/30 02:42:00;;;;;;;1999.90;999.90;;;;;;;4.47;100.00;93634.97;5096201;28;20206;-63
2022/05/30 02:44:25;;;;;;;1999.90;999.90;;;;;;;4.49;100.00;93631.88;5095866;28;20192;-63
2022/05/30 02:46:54;;;;;;;1999.90;999.90;;;;;;;4.43;100.00;93622.69;5095851;28;20219;-62
2022/05/30 02:49:20;;;;;;;1999.90;999.90;;;;;;;4.42;100.00;93630.03;5096162;28;20184;-62
2022/05/30 02:51:46;;;;;;;1999.90;999.90;;;;;;;4.44;100.00;93643.13;5095637;28;20244;-76
2022/05/30 02:54:12;;;;;;;1999.90;999.90;;;;;;;4.44;100.00;93645.84;5096124;28;20188;-60
2022/05/30 02:56:38;;;;;;;1999.90;999.90;;;;;;;4.45;100.00;93645.44;5095852;28;20179;-59
2022/05/30 02:59:04;;;;;;;1999.90;999.90;;;;;;;4.42;100.00;93653.56;5095844;28;20189;-59
2022/05/30 03:01:31;;;;;;;1999.90;999.90;;;;;;;4.45;100.00;93652.78;5095717;28;20268;-59
2022/05/30 03:04:01;;;;;;;1999.90;999.90;;;;;;;4.45;100.00;93661.66;5096340;28;20187;-60
2022/05/30 03:06:28;;;;;;;1999.90;999.90;;;;;;;4.46;100.00;93659.69;5096128;28;20210;-60
2022/05/30 03:08:54;;;;;;;1999.90;999.90;;;;;;;4.45;100.00;93658.94;5095696;28;20245;-60
2022/05/30 03:11:19;;;;;;;1999.90;999.90;;;;;;;4.49;100.00;93658.88;5096053;28;20188;-59
2022/05/30 03:13:45;;;;;;;1999.90;999.90;;;;;;;4.55;100.00;93649.16;5095529;28;20230;-66
2022/05/30 03:16:11;;;;;;;1999.90;999.90;;;;;;;4.58;100.00;93657.22;5095621;28;20278;-67
2022/05/30 03:18:36;;;;;;;1999.90;999.90;;;;;;;4.62;100.00;93646.38;5095604;28;20241;-67
2022/05/30 03:21:03;;;;;;;1999.90;999.90;;;;;;;4.65;100.00;93648.22;5096474;28;20190;-66
2022/05/30 03:23:29;;;;;;;1999.90;999.90;;;;;;;4.69;100.00;93651.63;5099299;28;20187;-65
2022/05/30 03:25:55;;;;;;;1999.90;999.90;;;;;;;4.67;100.00;93648.59;5098900;28;20214;-66
2022/05/30 03:28:20;;;;;;;1999.90;999.90;;;;;;;4.68;100.00;93660.94;5098722;28;20184;-63
2022/05/30 03:30:45;;;;;;;1999.90;999.90;;;;;;;4.77;100.00;93666.59;5098685;28;20203;-58
2022/05/30 03:33:11;;;;;;;1999.90;999.90;;;;;;;4.90;100.00;93659.44;5098852;28;20184;-58
2022/05/30 03:35:38;;;;;;;1999.90;999.90;;;;;;;5.02;100.00;93664.28;5099468;28;20186;-58
2022/05/30 03:38:06;;;;;;;1999.90;999.90;;;;;;;5.11;100.00;93683.47;5098453;28;20184;-58
2022/05/30 03:40:31;;;;;;;1999.90;999.90;;;;;;;5.18;100.00;93683.34;5099201;28;20181;-58
2022/05/30 03:42:57;;;;;;;1999.90;999.90;;;;;;;5.23;100.00;93685.59;5098809;28;20186;-58
2022/05/30 03:45:23;;;;;;;1999.90;999.90;;;;;;;5.27;100.00;93686.28;5098411;28;20274;-74
2022/05/30 03:47:49;;;;;;;1999.90;999.90;;;;;;;5.26;100.00;93690.19;5098759;28;20295;-60
2022/05/30 03:50:19;;;;;;;1999.90;999.90;;;;;;;5.15;100.00;93684.94;5098921;28;20248;-61
2022/05/30 03:52:44;;;;;;;1999.90;999.90;;;;;;;5.17;100.00;93688.00;5098835;28;20189;-60
2022/05/30 03:55:13;;;;;;;1999.90;999.90;;;;;;;5.30;100.00;93686.25;5098456;28;20243;-60
2022/05/30 03:57:40;;;;;;;1999.90;999.90;;;;;;;5.40;100.00;93687.25;5098400;28;20183;-60
2022/05/30 04:00:10;;;;;;;1999.90;999.90;;;;;;;5.30;100.00;93696.31;5098978;28;20191;-61
2022/05/30 04:02:35;;;;;;;1999.90;999.90;;;;;;;5.40;100.00;93695.38;5098417;28;20200;-60
2022/05/30 04:05:01;;;;;;;1999.90;999.90;;;;;;;5.47;100.00;93681.72;5098043;28;20281;-60
2022/05/30 04:07:26;;;;;;;1999.90;999.90;;;;;;;5.45;100.00;93684.06;5098915;28;20192;-59
2022/05/30 04:09:52;;;;;;;1999.90;999.90;;;;;;;5.52;100.00;93668.47;5098272;28;20252;-59
2022/05/30 04:12:21;;;;;;;1999.90;999.90;;;;;;;5.60;100.00;93666.41;5098284;28;20187;-60
2022/05/30 04:14:57;;;;;;;1999.90;999.90;;;;;;;5.71;100.00;93656.16;5097956;28;20223;-59
2022/05/30 04:17:24;;;;;;;1999.90;999.90;;;;;;;6.10;100.00;93631.81;5097823;28;20209;-60
2022/05/30 04:19:49;;;;;;;1999.90;999.90;;;;;;;6.48;100.00;93613.97;5098058;28;20197;-60
2022/05/30 04:22:15;;;;;;;1999.90;999.90;;;;;;;6.71;100.00;93581.31;5098073;28;20256;-61
2022/05/30 04:24:40;;;;;;;1999.90;999.90;;;;;;;6.81;100.00;93574.88;5098617;28;20168;-60
2022/05/30 04:27:06;;;;;;;1999.90;999.90;;;;;;;6.73;100.00;93568.09;5097975;28;20211;-68
2022/05/30 04:29:32;;;;;;;1999.90;999.90;;;;;;;6.83;100.00;93553.53;5097714;28;20180;-65
2022/05/30 04:31:59;;;;;;;1999.90;999.90;;;;;;;7.08;100.00;93529.25;5097625;28;20191;-65
2022/05/30 04:34:25;;;;;;;1999.90;999.90;;;;;;;7.24;100.00;93515.66;5097928;28;20198;-65
2022/05/30 04:36:50;;;;;;;1999.90;999.90;;;;;;;7.26;100.00;93493.50;5098117;28;20194;-65
2022/05/30 04:39:15;;;;;;;1999.90;999.90;;;;;;;7.47;100.00;93463.81;5098101;28;20186;-64
2022/05/30 04:41:41;;;;;;;1999.90;999.90;;;;;;;8.06;100.00;93401.53;5097693;28;20301;-61
2022/05/30 04:44:06;;;;;;;1999.90;999.90;;;;;;;8.56;100.00;93357.22;5097636;28;20176;-61
2022/05/30 04:46:31;;;;;;;1999.90;999.90;;;;;;;9.06;100.00;93303.31;5097707;28;20229;-61
2022/05/30 04:48:57;;;;;;;1999.90;999.90;;;;;;;9.57;100.00;93255.47;5097873;28;20206;-60
2022/05/30 04:51:23;;;;;;;1999.90;999.90;;;;;;;9.48;100.00;93230.16;5097445;28;20196;-61
2022/05/30 04:53:48;;;;;;;1999.90;999.90;;;;;;;9.63;100.00;93204.63;5097409;28;20275;-61
2022/05/30 04:56:13;;;;;;;1999.90;999.90;;;;;;;10.34;100.00;93179.88;5097364;28;20193;-61
2022/05/30 04:58:39;;;;;;;1999.90;999.90;;;;;;;10.63;100.00;93191.09;5098021;28;20191;-66
2022/05/30 05:01:08;;;;;;;1999.90;999.90;;;;;;;10.50;100.00;93253.25;5097590;28;20223;-71
2022/05/30 05:03:37;;;;;;;1999.90;999.90;;;;;;;11.48;100.00;93276.16;5097270;28;20183;-61
2022/05/30 05:06:14;;;;;;;1999.90;999.90;;;;;;;11.96;100.00;93373.56;5097629;28;20336;-61
2022/05/30 05:08:55;;;;;;;1999.90;999.90;;;;;;;12.07;100.00;93481.28;5097600;28;20191;-61
2022/05/30 05:11:29;;;;;;;1999.90;999.90;;;;;;;11.67;100.00;93578.38;5097206;28;20297;-65
2022/05/30 05:13:56;;;;;;;1999.90;999.90;;;;;;;12.33;100.00;93586.44;5097445;28;20217;-67
2022/05/30 05:16:24;;;;;;;1999.90;999.90;;;;;;;13.22;100.00;93616.81;5096939;28;20279;-65
2022/05/30 05:18:49;;;;;;;1999.90;999.90;;;;;;;13.15;100.00;93721.31;5097637;28;20282;-62
2022/05/30 05:21:23;;;;;;;1999.90;999.90;;;;;;;13.73;100.00;93732.69;5096898;28;20268;-62
2022/05/30 05:23:49;;;;;;;1999.90;999.90;;;;;;;14.18;100.00;93770.91;5097744;28;20228;-62
2022/05/30 05:26:15;;;;;;;1999.90;999.90;;;;;;;13.72;100.00;93837.41;5096864;28;20298;-62
2022/05/30 05:28:41;;;;;;;1999.90;999.90;;;;;;;13.87;100.00;93857.50;5096767;28;20191;-62
2022/05/30 05:31:08;;;;;;;1999.90;999.90;;;;;;;14.60;100.00;93919.22;5096555;28;20188;-61
2022/05/30 05:33:34;;;;;;;1999.90;999.90;;;;;;;14.37;100.00;93975.59;5096700;28;20270;-62
2022/05/30 05:36:00;;;;;;;1999.90;999.90;;;;;;;13.89;100.00;93997.75;5096733;28;20643;-58
2022/05/30 05:38:26;;;;;;;1999.90;999.90;;;;;;;14.31;100.00;93977.44;5114761;28;20175;-59
2022/05/30 05:40:52;;;;;;;1999.90;999.90;;;;;;;14.89;100.00;94016.34;5097262;28;20279;-58
2022/05/30 05:43:18;;;;;;;1999.90;999.90;;;;;;;15.05;100.00;93999.44;5096304;28;20211;-58
2022/05/30 05:45:44;;;;;;;1999.90;999.90;;;;;;;15.35;100.00;94078.22;5096338;28;20199;-56
2022/05/30 05:48:10;;;;;;;1999.90;999.90;;;;;;;15.00;100.00;94123.81;5096463;28;20285;-57
2022/05/30 05:50:40;;;;;;;1999.90;999.90;;;;;;;14.91;100.00;94125.84;5096653;28;20180;-58
2022/05/30 05:53:06;;;;;;;1999.90;999.90;;;;;;;14.31;100.00;94142.22;5096517;28;20187;-58
2022/05/30 05:55:32;;;;;;;1999.90;999.90;;;;;;;14.65;100.00;94110.94;5096523;28;20184;-59
2022/05/30 05:57:57;;;;;;;1999.90;999.90;;;;;;;14.71;100.00;94118.09;5096609;28;20196;-56
2022/05/30 06:00:23;;;;;;;1999.90;999.90;;;;;;;15.37;100.00;94058.50;5096703;28;20247;-55
2022/05/30 06:02:48;;;;;;;1999.90;999.90;;;;;;;14.75;100.00;94102.19;5096902;28;20276;-54
2022/05/30 06:05:14;;;;;;;1999.90;999.90;;;;;;;15.01;100.00;94106.09;5096102;28;20264;-56
2022/05/30 06:07:41;;;;;;;1999.90;999.90;;;;;;;16.11;100.00;94105.88;5096916;28;20247;-56
2022/05/30 06:10:10;;;;;;;1999.90;999.90;;;;;;;15.57;100.00;94139.25;5096213;28;20172;-56
2022/05/30 06:12:42;;;;;;;1999.90;999.90;;;;;;;14.77;100.00;94149.22;5096084;28;20176;-66
2022/05/30 06:15:13;;;;;;;1999.90;999.90;;;;;;;15.54;100.00;94115.41;5096895;28;20184;-59
2022/05/30 06:17:43;;;;;;;1999.90;999.90;;;;;;;15.95;100.00;94138.56;5096556;28;20210;-59
2022/05/30 06:20:10;;;;;;;1999.90;999.90;;;;;;;16.80;100.00;94143.34;5096139;28;20188;-58
2022/05/30 06:22:36;;;;;;;1999.90;999.90;;;;;;;17.03;100.00;94189.38;5096082;28;20205;-58
2022/05/30 06:25:02;;;;;;;1999.90;999.90;;;;;;;16.19;100.00;94200.72;5095791;28;20252;-58
2022/05/30 06:27:27;;;;;;;1999.90;999.90;;;;;;;16.46;100.00;94166.72;5096328;28;20180;-58
2022/05/30 06:29:53;;;;;;;1999.90;999.90;;;;;;;16.29;100.00;94182.88;5096353;28;20191;-58
2022/05/30 06:32:18;;;;;;;1999.90;999.90;;;;;;;16.95;100.00;94188.25;5096144;28;20195;-62
2022/05/30 06:34:44;;;;;;;1999.90;999.90;;;;;;;17.59;100.00;94191.94;5096026;28;20184;-59
2022/05/30 06:37:14;;;;;;;1999.90;999.90;;;;;;;17.65;100.00;94234.94;5096037;28;20271;-59
2022/05/30 06:39:40;;;;;;;1999.90;999.90;;;;;;;16.89;100.00;94250.81;5096097;28;20187;-59
2022/05/30 06:42:14;;;;;;;1999.90;999.90;;;;;;;17.96;100.00;94242.75;5095997;28;20199;-58
2022/05/30 06:44:40;;;;;;;1999.90;999.90;;;;;;;17.58;100.00;94264.94;5095727;28;20183;-58
2022/05/30 06:47:07;;;;;;;1999.90;999.90;;;;;;;17.93;100.00;94265.78;5095850;28;20203;-57
2022/05/30 06:49:33;;;;;;;1999.90;999.90;;;;;;;18.64;100.00;94279.94;5096240;28;20188;-61
2022/05/30 06:51:59;;;;;;;1999.90;999.90;;;;;;;18.06;100.00;94280.81;5095802;28;20187;-59
2022/05/30 06:54:25;;;;;;;1999.90;999.90;;;;;;;19.50;100.00;94291.88;5095814;28;20187;-58
2022/05/30 06:59:35;;;;;;;1999.90;999.90;;;;;;;19.02;100.00;94240.97;5117867;28;20187;-59
2022/05/30 07:02:01;;;;;;;1999.90;999.90;;;;;;;19.17;96.83;94294.97;5099482;28;20191;-59
2022/05/30 07:04:30;;;;;;;1999.90;999.90;;;;;;;19.02;97.25;94299.09;5099086;28;20186;-59
2022/05/30 07:06:55;;;;;;;1999.90;999.90;;;;;;;18.15;98.05;94398.81;5099252;28;20204;-58
2022/05/30 07:09:21;;;;;;;1999.90;999.90;;;;;;;19.30;98.08;94380.50;5099010;28;20205;-54
2022/05/30 07:11:46;;;;;;;1999.90;999.90;;;;;;;18.57;97.11;94496.06;5098974;28;20199;-55
2022/05/30 07:14:12;;;;;;;1999.90;999.90;;;;;;;17.59;100.00;94561.94;5099486;28;20188;-57
2022/05/30 07:16:39;;;;;;;1999.90;999.90;;;;;;;17.88;100.00;94604.25;5098952;28;20208;-55
2022/05/30 07:19:04;;;;;;;1999.90;999.90;;;;;;;17.32;100.00;94639.31;5098773;28;20183;-56
2022/05/30 07:21:30;;;;;;;1999.90;999.90;;;;;;;19.17;98.30;94670.75;5098745;28;20195;-46
2022/05/30 07:23:55;;;;;;;1999.90;999.90;;;;;;;18.05;98.56;94715.16;5099201;28;20222;-50
2022/05/30 07:26:21;;;;;;;1999.90;999.90;;;;;;;17.25;100.00;94731.47;5098794;28;20311;-47
2022/05/30 07:28:46;;;;;;;1999.90;999.90;;;;;;;17.80;96.46;94754.25;5099407;28;20219;-50
2022/05/30 07:31:15;;;;;;;1999.90;999.90;;;;;;;18.34;92.94;94760.34;5098831;28;20195;-54
2022/05/30 07:33:44;;;;;;;1999.90;999.90;;;;;;;18.28;91.72;94753.91;5098445;28;20188;-51
2022/05/30 07:36:13;;;;;;;1999.90;999.90;;;;;;;17.89;92.01;94768.03;5099123;28;20223;-56
2022/05/30 07:38:39;;;;;;;1999.90;999.90;;;;;;;17.11;96.10;94770.00;5099313;28;20180;-54
2022/05/30 07:41:05;;;;;;;1999.90;999.90;;;;;;;16.93;100.00;94781.03;5099041;28;20298;-54
2022/05/30 07:43:30;;;;;;;1999.90;999.90;;;;;;;18.13;93.48;94782.69;5098772;28;20190;-55
2022/05/30 07:46:04;;;;;;;1999.90;999.90;;;;;;;20.03;86.51;94777.31;5098385;28;20243;-60
2022/05/30 07:48:29;;;;;;;1999.90;999.90;;;;;;;19.85;77.32;94769.19;5116664;28;20205;-55
2022/05/30 07:51:10;;;;;;;1999.90;999.90;;;;;;;19.69;76.91;94789.06;5096670;28;20179;-51
2022/05/30 07:53:44;;;;;;;1999.90;999.90;;;;;;;17.51;89.10;94814.75;5094787;28;20244;-49
2022/05/30 07:56:26;;;;;;;1999.90;999.90;;;;;;;17.30;100.00;94837.75;5095739;28;20191;-53
2022/05/30 07:59:00;;;;;;;1999.90;999.90;;;;;;;18.51;89.62;94813.28;5095653;28;20192;-51
2022/05/30 08:01:26;;;;;;;1999.90;999.90;;;;;;;18.99;82.50;94817.63;5098133;28;20244;-53
2022/05/30 08:03:52;;;;;;;1999.90;999.90;;;;;;;20.07;82.57;94816.69;5098319;28;20195;-62
2022/05/30 08:06:24;;;;;;;1999.90;999.90;;;;;;;20.84;69.47;94814.41;5097642;28;20207;-52
2022/05/30 08:08:50;;;;;;;1999.90;999.90;;;;;;;20.99;72.82;94838.13;5098178;28;20235;-54
2022/05/30 08:11:17;;;;;;;1999.90;999.90;;;;;;;20.98;64.48;94830.28;5097986;28;20287;-50
2022/05/30 08:13:45;;;;;;;1999.90;999.90;;;;;;;20.36;64.64;94836.13;5098104;28;20184;-50
2022/05/30 08:16:11;;;;;;;1999.90;999.90;;;;;;;20.30;69.70;94857.47;5097984;28;20195;-49
2022/05/30 08:18:37;;;;;;;1999.90;999.90;;;;;;;18.22;83.63;94882.19;5097806;28;20188;-55
2022/05/30 08:21:03;;;;;;;1999.90;999.90;;;;;;;18.42;78.04;94874.16;5098099;28;20187;-53
2022/05/30 08:23:29;;;;;;;1999.90;999.90;;;;;;;19.09;78.05;94866.16;5097961;28;20191;-54
2022/05/30 08:25:55;;;;;;;1999.90;999.90;;;;;;;18.83;80.67;94892.75;5097725;28;20206;-51
2022/05/30 08:28:21;;;;;;;1999.90;999.90;;;;;;;19.79;75.21;94870.88;5098298;28;20198;-53
2022/05/30 08:30:47;;;;;;;1999.90;999.90;;;;;;;18.34;82.83;94897.81;5098478;28;20249;-50
2022/05/30 08:33:16;;;;;;;1999.90;999.90;;;;;;;16.96;87.55;94891.19;5097691;28;20183;-53
2022/05/30 08:35:45;;;;;;;1999.90;999.90;;;;;;;18.31;89.39;94898.72;5097689;28;20218;-54
2022/05/30 08:38:10;;;;;;;1999.90;999.90;;;;;;;20.91;72.72;94861.19;5097787;28;20183;-52
2022/05/30 08:43:34;;;;;;;1999.90;999.90;;;;;;;20.36;66.54;94869.41;5116303;28;20199;-57
2022/05/30 08:46:17;;;;;;;1999.90;999.90;;;;;;;21.73;62.13;94848.44;5098129;28;20288;-59
2022/05/30 08:48:49;;;;;;;1999.90;999.90;;;;;;;21.55;61.78;94851.47;5097531;28;20180;-59
2022/05/30 08:51:21;;;;;;;1999.90;999.90;;;;;;;19.74;70.51;94884.63;5097612;28;20268;-58
2022/05/30 08:54:22;;;;;;;1999.90;999.90;;;;;;;19.04;73.13;94894.47;5098326;28;20236;-59
2022/05/30 08:56:49;;;;;;;1999.90;999.90;;;;;;;20.13;67.01;94883.38;5097912;28;20187;-57
2022/05/30 08:59:43;;;;;;;1999.90;999.90;;;;;;;19.13;71.66;94891.66;5097140;28;20186;-59
2022/05/30 09:02:18;;;;;;;1999.90;999.90;;;;;;;18.09;76.71;94910.00;5097980;28;20188;-55
2022/05/30 09:04:52;;;;;;;1999.90;999.90;;;;;;;19.04;68.72;94888.94;5097743;28;20183;-54
2022/05/30 09:07:26;;;;;;;1999.90;999.90;;;;;;;17.34;74.28;94904.63;5097274;28;20241;-57
2022/05/30 09:10:17;;;;;;;1999.90;999.90;;;;;;;16.66;80.98;94916.09;5097674;28;20233;-56
2022/05/30 09:13:00;;;;;;;1999.90;999.90;;;;;;;19.96;67.17;94877.47;5097068;28;20245;-55
2022/05/30 09:15:34;;;;;;;1999.90;999.90;;;;;;;20.48;57.54;94848.94;5097641;28;20187;-55
2022/05/30 09:18:00;;;;;;;1999.90;999.90;;;;;;;20.22;58.85;94861.09;5096636;28;20206;-54
2022/05/30 09:20:27;;;;;;;1999.90;999.90;;;;;;;18.82;65.44;94882.88;5096316;28;20237;-56
2022/05/30 09:22:52;;;;;;;1999.90;999.90;;;;;;;18.18;69.84;94895.41;5096912;28;20184;-55
2022/05/30 09:28:06;;;;;;;1999.90;999.90;;;;;;;17.27;73.91;94905.69;5115538;28;20272;-56
2022/05/30 09:30:54;;;;;;;1999.90;999.90;;;;;;;18.81;66.38;94881.38;5096891;28;20199;-53
2022/05/30 09:33:33;;;;;;;1999.90;999.90;;;;;;;20.89;61.55;94869.22;5097144;28;20187;-55
2022/05/30 09:36:19;;;;;;;1999.90;999.90;;;;;;;20.49;55.44;94827.50;5096793;28;20199;-61
2022/05/30 09:38:57;;;;;;;1999.90;999.90;;;;;;;21.13;54.67;94831.00;5096951;28;20258;-66
2022/05/30 09:41:26;;;;;;;1999.90;999.90;;;;;;;21.61;50.77;94804.28;5096967;28;20175;-63
2022/05/30 09:43:55;;;;;;;1999.90;999.90;;;;;;;19.89;57.52;94825.22;5096889;28;20184;-63
2022/05/30 09:46:30;;;;;;;1999.90;999.90;;;;;;;18.91;65.77;94860.72;5096282;28;20199;-62
2022/05/30 09:49:09;;;;;;;1999.90;999.90;;;;;;;20.19;64.24;94862.81;5097288;28;20188;-62
2022/05/30 09:51:41;;;;;;;1999.90;999.90;;;;;;;21.21;56.74;94821.75;5096557;28;20222;-63
2022/05/30 09:54:10;;;;;;;1999.90;999.90;;;;;;;20.61;59.22;94823.66;5096865;28;20194;-56
2022/05/30 09:56:44;;;;;;;1999.90;999.90;;;;;;;18.67;65.20;94848.84;5096838;28;20203;-53
2022/05/30 09:59:26;;;;;;;1999.90;999.90;;;;;;;18.04;75.16;94898.78;5096925;28;20206;-53
2022/05/30 10:01:53;;;;;;;1999.90;999.90;;;;;;;18.20;76.20;94909.50;5096815;28;20199;-53
2022/05/30 10:04:21;;;;;;;1999.90;999.90;;;;;;;18.41;72.92;94897.50;5096739;28;20195;-50
2022/05/30 10:07:09;;;;;;;1999.90;999.90;;;;;;;18.22;75.50;94898.75;5096467;28;20204;-54
2022/05/30 10:09:41;;;;;;;1999.90;999.90;;;;;;;18.17;77.55;94904.94;5096721;28;20195;-55
2022/05/30 10:12:08;;;;;;;1999.90;999.90;;;;;;;19.21;69.70;94887.28;5096943;28;20180;-54
2022/05/30 10:14:35;;;;;;;1999.90;999.90;;;;;;;20.66;59.64;94870.94;5096421;28;20287;-59
2022/05/30 10:17:26;;;;;;;1999.90;999.90;;;;;;;23.27;51.03;94800.88;5096245;28;20211;-61
2022/05/30 10:19:52;;;;;;;1999.90;999.90;;;;;;;23.33;47.43;94774.53;5096585;28;20195;-60
2022/05/30 10:29:02;;;;;;;1999.90;999.90;;;;;;;24.15;45.61;94728.59;5114551;28;20244;-59
2022/05/30 10:31:48;;;;;;;1999.90;999.90;;;;;;;22.75;46.52;94721.53;5099482;28;20188;-61
2022/05/30 10:34:42;;;;;;;1999.90;999.90;;;;;;;22.83;46.42;94719.84;5103095;28;20184;-50
2022/05/30 10:37:22;;;;;;;1999.90;999.90;;;;;;;22.20;47.28;94722.72;5102817;28;20206;-53
2022/05/30 10:39:47;;;;;;;1999.90;999.90;;;;;;;20.99;51.85;94731.84;5103185;28;20187;-53
2022/05/30 10:42:32;;;;;;;1999.90;999.90;;;;;;;20.23;57.33;94760.78;5103389;28;20186;-52
2022/05/30 10:45:05;;;;;;;1999.90;999.90;;;;;;;20.98;53.12;94733.84;5102820;28;20301;-47
2022/05/30 10:47:45;;;;;;;1999.90;999.90;;;;;;;22.80;51.35;94734.75;5103092;28;20211;-52
2022/05/30 10:50:10;;;;;;;1999.90;999.90;;;;;;;23.58;43.80;94720.63;5103269;28;20226;-60
2022/05/30 10:52:59;;;;;;;1999.90;999.90;;;;;;;24.08;41.53;94724.25;5102703;28;20195;-55
2022/05/30 10:55:31;;;;;;;1999.90;999.90;;;;;;;24.76;38.72;94720.91;5102729;28;20183;-52
2022/05/30 10:58:01;;;;;;;1999.90;999.90;;;;;;;25.18;37.30;94717.72;5102642;28;20251;-58
2022/05/30 11:00:33;;;;;;;1999.90;999.90;;;;;;;24.42;39.20;94722.22;5102373;28;20172;-57
2022/05/30 11:03:10;;;;;;;1999.90;999.90;;;;;;;25.13;39.36;94715.72;5102825;28;20184;-59
2022/05/30 11:05:46;;;;;;;1999.90;999.90;;;;;;;24.04;40.70;94717.41;5102490;28;20210;-53
2022/05/30 11:08:29;;;;;;;1999.90;999.90;;;;;;;23.06;42.83;94725.00;5102623;28;20175;-56
2022/05/30 11:11:11;;;;;;;1999.90;999.90;;;;;;;23.56;42.50;94722.41;5102415;28;20192;-55
2022/05/30 11:13:55;;;;;;;1999.90;999.90;;;;;;;23.01;43.43;94728.50;5102682;28;20183;-53
2022/05/30 11:16:33;;;;;;;1999.90;999.90;;;;;;;23.84;45.76;94717.63;5102531;28;20219;-55
2022/05/30 11:19:05;;;;;;;1999.90;999.90;;;;;;;20.39;47.44;94740.84;5102780;28;20180;-56
2022/05/30 11:21:37;;;;;;;1999.90;999.90;;;;;;;19.87;55.61;94738.22;5102951;28;20183;-54